createdAt,value
2015-02-24T00:00:07.294Z,98788
2015-02-24T00:00:25.955Z,98798
2015-02-24T00:00:44.630Z,98788
2015-02-24T00:01:03.306Z,98793
2015-02-24T00:01:21.995Z,98795
2015-02-24T00:01:40.659Z,98801
2015-02-24T00:01:59.348Z,98801
2015-02-24T00:02:18.020Z,98793
2015-02-24T00:02:36.697Z,98798
2015-02-24T00:02:55.355Z,98798
2015-02-24T00:03:14.034Z,98801
2015-02-24T00:03:32.712Z,98793
2015-02-24T00:03:51.388Z,98801
2015-02-24T00:04:10.075Z,98807
2015-02-24T00:04:28.735Z,98804
2015-02-24T00:04:47.424Z,98801
2015-02-24T00:05:06.084Z,98795
2015-02-24T00:05:24.768Z,98792
2015-02-24T00:05:43.447Z,98801
2015-02-24T00:06:02.124Z,98801
2015-02-24T00:06:20.780Z,98807
2015-02-24T00:06:39.451Z,98804
2015-02-24T00:06:58.125Z,98807
2015-02-24T00:07:16.809Z,98785
2015-02-24T00:07:35.474Z,98795
2015-02-24T00:07:54.156Z,98798
2015-02-24T00:08:12.842Z,98801
2015-02-24T00:08:31.528Z,98807
2015-02-24T00:08:50.190Z,98798
2015-02-24T00:09:08.879Z,98798
2015-02-24T00:09:27.537Z,98788
2015-02-24T00:09:46.216Z,98804
2015-02-24T00:10:04.893Z,98801
2015-02-24T00:10:23.571Z,98804
2015-02-24T00:10:42.247Z,98807
2015-02-24T00:11:00.919Z,98801
2015-02-24T00:11:19.592Z,98807
2015-02-24T00:11:38.270Z,98798
2015-02-24T00:11:56.966Z,98795
2015-02-24T00:12:15.653Z,98795
2015-02-24T00:12:34.319Z,98795
2015-02-24T00:12:52.982Z,98795
2015-02-24T00:13:11.655Z,98793
2015-02-24T00:13:30.330Z,98801
2015-02-24T00:13:49.008Z,98795
2015-02-24T00:14:07.698Z,98801
2015-02-24T00:14:26.365Z,98798
2015-02-24T00:14:45.053Z,98804
2015-02-24T00:15:03.713Z,98807
2015-02-24T00:15:22.393Z,98798
2015-02-24T00:15:41.064Z,98804
2015-02-24T00:15:59.741Z,98804
2015-02-24T00:16:18.414Z,98804
2015-02-24T00:16:37.098Z,98804
2015-02-24T00:16:55.782Z,98810
2015-02-24T00:17:14.445Z,98816
2015-02-24T00:17:33.134Z,98807
2015-02-24T00:17:51.811Z,98816
2015-02-24T00:18:10.470Z,98810
2015-02-24T00:18:29.148Z,98804
2015-02-24T00:18:47.828Z,98816
2015-02-24T00:19:06.505Z,98816
2015-02-24T00:19:25.191Z,98824
2015-02-24T00:19:43.852Z,98810
2015-02-24T00:20:02.526Z,98813
2015-02-24T00:20:21.202Z,98821
2015-02-24T00:20:39.880Z,98807
2015-02-24T00:20:58.558Z,98810
2015-02-24T00:21:17.242Z,98816
2015-02-24T00:21:35.907Z,98816
2015-02-24T00:21:54.596Z,98821
2015-02-24T00:22:13.255Z,98810
2015-02-24T00:22:31.934Z,98801
2015-02-24T00:22:50.623Z,98818
2015-02-24T00:23:09.287Z,98810
2015-02-24T00:23:27.960Z,98816
2015-02-24T00:23:46.634Z,98810
2015-02-24T00:24:05.310Z,98810
2015-02-24T00:24:23.992Z,98810
2015-02-24T00:24:42.660Z,98810
2015-02-24T00:25:01.341Z,98816
2015-02-24T00:25:20.036Z,98821
2015-02-24T00:25:38.706Z,98807
2015-02-24T00:25:57.367Z,98816
2015-02-24T00:26:16.042Z,98804
2015-02-24T00:26:34.718Z,98813
2015-02-24T00:26:53.390Z,98813
2015-02-24T00:27:12.068Z,98810
2015-02-24T00:27:30.760Z,98816
2015-02-24T00:27:49.427Z,98816
2015-02-24T00:28:08.102Z,98813
2015-02-24T00:28:26.775Z,98813
2015-02-24T00:28:45.464Z,98818
2015-02-24T00:29:04.128Z,98813
2015-02-24T00:29:22.804Z,98824
2015-02-24T00:29:41.497Z,98829
2015-02-24T00:30:00.174Z,98818
2015-02-24T00:30:18.833Z,98824
2015-02-24T00:30:37.524Z,98829
2015-02-24T00:30:56.194Z,98826
2015-02-24T00:31:14.855Z,98826
2015-02-24T00:31:33.548Z,98826
2015-02-24T00:31:52.212Z,98829
2015-02-24T00:32:10.890Z,98829
2015-02-24T00:32:29.575Z,98824
2015-02-24T00:32:48.241Z,98838
2015-02-24T00:33:06.915Z,98838
2015-02-24T00:33:24.946Z,98838
2015-02-24T00:33:43.640Z,98835
2015-02-24T00:34:02.317Z,98832
2015-02-24T00:34:20.986Z,98843
2015-02-24T00:34:39.658Z,98840
2015-02-24T00:34:58.333Z,98835
2015-02-24T00:35:17.009Z,98846
2015-02-24T00:35:35.695Z,98849
2015-02-24T00:35:54.367Z,98835
2015-02-24T00:36:13.043Z,98843
2015-02-24T00:36:31.713Z,98852
2015-02-24T00:36:50.406Z,98838
2015-02-24T00:37:09.071Z,98849
2015-02-24T00:37:27.742Z,98843
2015-02-24T00:37:46.420Z,98852
2015-02-24T00:38:05.091Z,98843
2015-02-24T00:38:23.767Z,98849
2015-02-24T00:38:42.457Z,98855
2015-02-24T00:39:01.117Z,98843
2015-02-24T00:39:19.791Z,98855
2015-02-24T00:39:38.492Z,98846
2015-02-24T00:39:57.146Z,98841
2015-02-24T00:40:15.829Z,98849
2015-02-24T00:40:34.509Z,98849
2015-02-24T00:40:53.178Z,98841
2015-02-24T00:41:11.858Z,98852
2015-02-24T00:41:30.538Z,98852
2015-02-24T00:41:49.203Z,98846
2015-02-24T00:42:07.889Z,98855
2015-02-24T00:42:26.555Z,98846
2015-02-24T00:42:45.235Z,98855
2015-02-24T00:43:03.917Z,98846
2015-02-24T00:43:22.586Z,98852
2015-02-24T00:43:41.278Z,98852
2015-02-24T00:43:59.949Z,98858
2015-02-24T00:44:18.609Z,98852
2015-02-24T00:44:37.289Z,98855
2015-02-24T00:44:55.967Z,98858
2015-02-24T00:45:14.642Z,98852
2015-02-24T00:45:33.329Z,98864
2015-02-24T00:45:52.007Z,98858
2015-02-24T00:46:10.682Z,98861
2015-02-24T00:46:29.358Z,98858
2015-02-24T00:46:48.021Z,98852
2015-02-24T00:47:06.698Z,98866
2015-02-24T00:47:25.387Z,98866
2015-02-24T00:47:44.058Z,98869
2015-02-24T00:48:02.735Z,98855
2015-02-24T00:48:21.424Z,98869
2015-02-24T00:48:40.097Z,98861
2015-02-24T00:48:58.759Z,98861
2015-02-24T00:49:17.443Z,98861
2015-02-24T00:49:36.109Z,98861
2015-02-24T00:49:54.802Z,98861
2015-02-24T00:50:13.459Z,98858
2015-02-24T00:50:32.137Z,98866
2015-02-24T00:50:50.804Z,98858
2015-02-24T00:51:09.493Z,98852
2015-02-24T00:51:28.155Z,98864
2015-02-24T00:51:46.847Z,98861
2015-02-24T00:52:05.510Z,98869
2015-02-24T00:52:24.196Z,98872
2015-02-24T00:52:42.877Z,98861
2015-02-24T00:53:01.530Z,98858
2015-02-24T00:53:20.205Z,98869
2015-02-24T00:53:38.885Z,98866
2015-02-24T00:53:57.561Z,98855
2015-02-24T00:54:16.235Z,98858
2015-02-24T00:54:34.910Z,98858
2015-02-24T00:54:53.588Z,98864
2015-02-24T00:55:12.286Z,98866
2015-02-24T00:55:30.937Z,98864
2015-02-24T00:55:49.629Z,98872
2015-02-24T00:56:08.137Z,98869
2015-02-24T00:56:26.813Z,98864
2015-02-24T00:56:45.504Z,98858
2015-02-24T00:57:04.163Z,98866
2015-02-24T00:57:22.834Z,98864
2015-02-24T00:57:41.510Z,98858
2015-02-24T00:58:00.197Z,98864
2015-02-24T00:58:18.869Z,98866
2015-02-24T00:58:37.540Z,98864
2015-02-24T00:58:56.215Z,98869
2015-02-24T00:59:14.888Z,98858
2015-02-24T00:59:33.564Z,98866
2015-02-24T00:59:52.242Z,98864
2015-02-24T01:00:10.933Z,98864
2015-02-24T01:00:29.598Z,98861
2015-02-24T01:00:48.292Z,98861
2015-02-24T01:01:06.951Z,98866
2015-02-24T01:01:25.635Z,98858
2015-02-24T01:01:44.311Z,98864
2015-02-24T01:02:02.983Z,98855
2015-02-24T01:02:21.669Z,98861
2015-02-24T01:02:40.347Z,98861
2015-02-24T01:02:59.020Z,98864
2015-02-24T01:03:17.695Z,98867
2015-02-24T01:03:36.370Z,98861
2015-02-24T01:03:55.045Z,98866
2015-02-24T01:04:13.720Z,98869
2015-02-24T01:04:32.404Z,98869
2015-02-24T01:04:51.098Z,98872
2015-02-24T01:05:09.774Z,98869
2015-02-24T01:05:28.445Z,98866
2015-02-24T01:05:47.109Z,98875
2015-02-24T01:06:05.786Z,98872
2015-02-24T01:06:24.463Z,98875
2015-02-24T01:06:43.141Z,98869
2015-02-24T01:07:01.819Z,98872
2015-02-24T01:07:20.513Z,98884
2015-02-24T01:07:39.200Z,98884
2015-02-24T01:07:57.867Z,98881
2015-02-24T01:08:16.528Z,98887
2015-02-24T01:08:35.215Z,98884
2015-02-24T01:08:53.885Z,98890
2015-02-24T01:09:12.563Z,98890
2015-02-24T01:09:31.243Z,98881
2015-02-24T01:09:49.925Z,98878
2015-02-24T01:10:08.581Z,98884
2015-02-24T01:10:27.254Z,98887
2015-02-24T01:10:45.943Z,98887
2015-02-24T01:11:04.614Z,98895
2015-02-24T01:11:23.282Z,98872
2015-02-24T01:11:41.955Z,98890
2015-02-24T01:11:59.999Z,98887
2015-02-24T01:12:18.660Z,98890
2015-02-24T01:12:37.350Z,98890
2015-02-24T01:12:56.012Z,98890
2015-02-24T01:13:14.685Z,98884
2015-02-24T01:13:33.357Z,98890
2015-02-24T01:13:52.048Z,98887
2015-02-24T01:14:10.710Z,98890
2015-02-24T01:14:29.400Z,98887
2015-02-24T01:14:48.068Z,98875
2015-02-24T01:15:06.741Z,98887
2015-02-24T01:15:25.409Z,98884
2015-02-24T01:15:44.086Z,98895
2015-02-24T01:16:02.763Z,98887
2015-02-24T01:16:21.439Z,98892
2015-02-24T01:16:40.122Z,98887
2015-02-24T01:16:58.824Z,98887
2015-02-24T01:17:17.472Z,98895
2015-02-24T01:17:36.146Z,98895
2015-02-24T01:17:54.825Z,98898
2015-02-24T01:18:12.853Z,98898
2015-02-24T01:18:31.543Z,98890
2015-02-24T01:18:50.226Z,98890
2015-02-24T01:19:08.904Z,98887
2015-02-24T01:19:27.559Z,98893
2015-02-24T01:19:46.233Z,98890
2015-02-24T01:20:04.922Z,98893
2015-02-24T01:20:23.597Z,98898
2015-02-24T01:20:42.266Z,98904
2015-02-24T01:21:00.941Z,98887
2015-02-24T01:21:19.613Z,98898
2015-02-24T01:21:38.292Z,98893
2015-02-24T01:21:56.980Z,98895
2015-02-24T01:22:15.669Z,98895
2015-02-24T01:22:34.331Z,98901
2015-02-24T01:22:53.026Z,98893
2015-02-24T01:23:11.699Z,98898
2015-02-24T01:23:30.358Z,98893
2015-02-24T01:23:49.045Z,98895
2015-02-24T01:24:07.722Z,98890
2015-02-24T01:24:26.391Z,98901
2015-02-24T01:24:45.057Z,98898
2015-02-24T01:25:03.752Z,98893
2015-02-24T01:25:22.418Z,98887
2015-02-24T01:25:41.109Z,98896
2015-02-24T01:25:59.770Z,98895
2015-02-24T01:26:18.444Z,98893
2015-02-24T01:26:37.117Z,98904
2015-02-24T01:26:55.809Z,98898
2015-02-24T01:27:14.471Z,98907
2015-02-24T01:27:33.161Z,98904
2015-02-24T01:27:51.828Z,98898
2015-02-24T01:28:10.502Z,98904
2015-02-24T01:28:29.191Z,98898
2015-02-24T01:28:47.878Z,98893
2015-02-24T01:29:06.531Z,98901
2015-02-24T01:29:25.210Z,98890
2015-02-24T01:29:43.900Z,98893
2015-02-24T01:30:02.559Z,98893
2015-02-24T01:30:21.246Z,98898
2015-02-24T01:30:39.923Z,98898
2015-02-24T01:30:58.598Z,98898
2015-02-24T01:31:17.253Z,98890
2015-02-24T01:31:35.941Z,98884
2015-02-24T01:31:54.623Z,98884
2015-02-24T01:32:13.316Z,98887
2015-02-24T01:32:31.957Z,98893
2015-02-24T01:32:50.636Z,98890
2015-02-24T01:33:09.313Z,98890
2015-02-24T01:33:27.987Z,98898
2015-02-24T01:33:46.665Z,98890
2015-02-24T01:34:05.347Z,98896
2015-02-24T01:34:24.035Z,98893
2015-02-24T01:34:42.695Z,98881
2015-02-24T01:35:01.381Z,98898
2015-02-24T01:35:20.056Z,98881
2015-02-24T01:35:38.731Z,98890
2015-02-24T01:35:57.393Z,98881
2015-02-24T01:36:16.071Z,98875
2015-02-24T01:36:34.764Z,98878
2015-02-24T01:36:53.429Z,98875
2015-02-24T01:37:12.100Z,98881
2015-02-24T01:37:30.788Z,98890
2015-02-24T01:37:49.455Z,98890
2015-02-24T01:38:08.129Z,98881
2015-02-24T01:38:26.800Z,98878
2015-02-24T01:38:45.492Z,98881
2015-02-24T01:39:04.159Z,98881
2015-02-24T01:39:22.832Z,98878
2015-02-24T01:39:41.508Z,98875
2015-02-24T01:40:00.196Z,98881
2015-02-24T01:40:18.857Z,98884
2015-02-24T01:40:37.549Z,98884
2015-02-24T01:40:56.215Z,98881
2015-02-24T01:41:14.887Z,98890
2015-02-24T01:41:33.561Z,98887
2015-02-24T01:41:52.233Z,98878
2015-02-24T01:42:10.920Z,98890
2015-02-24T01:42:29.594Z,98875
2015-02-24T01:42:48.262Z,98890
2015-02-24T01:43:06.939Z,98896
2015-02-24T01:43:25.610Z,98878
2015-02-24T01:43:44.300Z,98890
2015-02-24T01:44:02.976Z,98881
2015-02-24T01:44:21.648Z,98890
2015-02-24T01:44:40.311Z,98898
2015-02-24T01:44:58.984Z,98898
2015-02-24T01:45:17.666Z,98901
2015-02-24T01:45:36.351Z,98893
2015-02-24T01:45:55.013Z,98890
2015-02-24T01:46:13.685Z,98893
2015-02-24T01:46:32.358Z,98901
2015-02-24T01:46:51.053Z,98884
2015-02-24T01:47:09.721Z,98893
2015-02-24T01:47:28.397Z,98893
2015-02-24T01:47:47.074Z,98898
2015-02-24T01:48:05.736Z,98893
2015-02-24T01:48:24.409Z,98898
2015-02-24T01:48:43.099Z,98887
2015-02-24T01:49:01.761Z,98898
2015-02-24T01:49:20.446Z,98901
2015-02-24T01:49:39.121Z,98896
2015-02-24T01:49:57.798Z,98893
2015-02-24T01:50:16.472Z,98890
2015-02-24T01:50:35.146Z,98893
2015-02-24T01:50:53.814Z,98890
2015-02-24T01:51:12.487Z,98890
2015-02-24T01:51:31.178Z,98898
2015-02-24T01:51:49.859Z,98901
2015-02-24T01:52:08.530Z,98893
2015-02-24T01:52:27.190Z,98893
2015-02-24T01:52:45.869Z,98887
2015-02-24T01:53:04.559Z,98890
2015-02-24T01:53:23.213Z,98890
2015-02-24T01:53:41.902Z,98890
2015-02-24T01:54:00.563Z,98887
2015-02-24T01:54:19.252Z,98881
2015-02-24T01:54:37.913Z,98890
2015-02-24T01:54:56.589Z,98887
2015-02-24T01:55:15.265Z,98893
2015-02-24T01:55:33.961Z,98893
2015-02-24T01:55:52.622Z,98881
2015-02-24T01:56:11.311Z,98887
2015-02-24T01:56:29.976Z,98884
2015-02-24T01:56:48.652Z,98887
2015-02-24T01:57:07.328Z,98896
2015-02-24T01:57:26.025Z,98896
2015-02-24T01:57:44.693Z,98893
2015-02-24T01:58:03.366Z,98884
2015-02-24T01:58:22.039Z,98896
2015-02-24T01:58:40.716Z,98890
2015-02-24T01:58:59.393Z,98890
2015-02-24T01:59:18.078Z,98896
2015-02-24T01:59:36.754Z,98896
2015-02-24T01:59:55.416Z,98890
2015-02-24T02:00:14.103Z,98890
2015-02-24T02:00:32.763Z,98898
2015-02-24T02:00:51.458Z,98896
2015-02-24T02:01:10.138Z,98898
2015-02-24T02:01:28.798Z,98884
2015-02-24T02:01:47.475Z,98881
2015-02-24T02:02:06.154Z,98887
2015-02-24T02:02:24.825Z,98890
2015-02-24T02:02:43.505Z,98893
2015-02-24T02:03:02.184Z,98890
2015-02-24T02:03:20.874Z,98890
2015-02-24T02:03:39.533Z,98893
2015-02-24T02:03:58.210Z,98884
2015-02-24T02:04:16.897Z,98896
2015-02-24T02:04:35.559Z,98907
2015-02-24T02:04:54.234Z,98898
2015-02-24T02:05:12.922Z,98901
2015-02-24T02:05:31.587Z,98904
2015-02-24T02:05:50.278Z,98896
2015-02-24T02:06:08.786Z,98896
2015-02-24T02:06:27.682Z,98893
2015-02-24T02:06:45.994Z,98896
2015-02-24T02:07:04.658Z,98896
2015-02-24T02:07:23.348Z,98893
2015-02-24T02:07:42.017Z,98890
2015-02-24T02:08:00.703Z,98899
2015-02-24T02:08:19.379Z,98893
2015-02-24T02:08:38.049Z,98901
2015-02-24T02:08:56.713Z,98896
2015-02-24T02:09:15.388Z,98907
2015-02-24T02:09:34.058Z,98901
2015-02-24T02:09:52.109Z,98896
2015-02-24T02:10:10.787Z,98893
2015-02-24T02:10:29.447Z,98907
2015-02-24T02:10:48.138Z,98910
2015-02-24T02:11:06.796Z,98910
2015-02-24T02:11:25.486Z,98907
2015-02-24T02:11:44.152Z,98913
2015-02-24T02:12:02.829Z,98910
2015-02-24T02:12:21.521Z,98910
2015-02-24T02:12:40.180Z,98907
2015-02-24T02:12:58.857Z,98910
2015-02-24T02:13:17.529Z,98907
2015-02-24T02:13:36.217Z,98913
2015-02-24T02:13:54.894Z,98913
2015-02-24T02:14:13.406Z,98919
2015-02-24T02:14:32.089Z,98910
2015-02-24T02:14:50.757Z,98916
2015-02-24T02:15:09.433Z,98913
2015-02-24T02:15:28.102Z,98924
2015-02-24T02:15:46.789Z,98913
2015-02-24T02:16:05.448Z,98919
2015-02-24T02:16:24.136Z,98921
2015-02-24T02:16:42.804Z,98904
2015-02-24T02:17:01.479Z,98910
2015-02-24T02:17:20.154Z,98924
2015-02-24T02:17:38.826Z,98916
2015-02-24T02:17:57.516Z,98913
2015-02-24T02:18:16.177Z,98916
2015-02-24T02:18:34.851Z,98924
2015-02-24T02:18:53.545Z,98919
2015-02-24T02:19:12.209Z,98927
2015-02-24T02:19:30.897Z,98921
2015-02-24T02:19:49.560Z,98927
2015-02-24T02:20:08.245Z,98919
2015-02-24T02:20:26.906Z,98924
2015-02-24T02:20:45.581Z,98927
2015-02-24T02:21:04.256Z,98916
2015-02-24T02:21:22.947Z,98924
2015-02-24T02:21:41.611Z,98922
2015-02-24T02:22:00.290Z,98927
2015-02-24T02:22:18.963Z,98922
2015-02-24T02:22:37.636Z,98933
2015-02-24T02:22:56.171Z,98927
2015-02-24T02:23:14.850Z,98927
2015-02-24T02:23:33.523Z,98930
2015-02-24T02:23:52.206Z,98927
2015-02-24T02:24:10.861Z,98930
2015-02-24T02:24:29.532Z,98924
2015-02-24T02:24:48.208Z,98933
2015-02-24T02:25:06.241Z,98939
2015-02-24T02:25:24.927Z,98933
2015-02-24T02:25:43.595Z,98939
2015-02-24T02:26:02.286Z,98933
2015-02-24T02:26:20.965Z,98922
2015-02-24T02:26:39.638Z,98933
2015-02-24T02:26:58.297Z,98924
2015-02-24T02:27:16.982Z,98927
2015-02-24T02:27:35.657Z,98933
2015-02-24T02:27:54.319Z,98924
2015-02-24T02:28:13.013Z,98924
2015-02-24T02:28:31.689Z,98922
2015-02-24T02:28:50.370Z,98933
2015-02-24T02:29:09.031Z,98927
2015-02-24T02:29:27.704Z,98936
2015-02-24T02:29:46.378Z,98942
2015-02-24T02:30:05.053Z,98916
2015-02-24T02:30:23.748Z,98924
2015-02-24T02:30:42.413Z,98930
2015-02-24T02:31:01.090Z,98927
2015-02-24T02:31:19.765Z,98922
2015-02-24T02:31:38.440Z,98924
2015-02-24T02:31:57.115Z,98927
2015-02-24T02:32:15.790Z,98930
2015-02-24T02:32:33.825Z,98936
2015-02-24T02:32:52.504Z,98927
2015-02-24T02:33:11.177Z,98927
2015-02-24T02:33:29.853Z,98924
2015-02-24T02:33:48.528Z,98933
2015-02-24T02:34:07.203Z,98922
2015-02-24T02:34:25.874Z,98924
2015-02-24T02:34:44.554Z,98945
2015-02-24T02:35:03.234Z,98936
2015-02-24T02:35:21.906Z,98939
2015-02-24T02:35:40.581Z,98939
2015-02-24T02:35:59.263Z,98933
2015-02-24T02:36:17.935Z,98930
2015-02-24T02:36:36.624Z,98936
2015-02-24T02:36:55.300Z,98950
2015-02-24T02:37:13.983Z,98939
2015-02-24T02:37:32.655Z,98942
2015-02-24T02:37:51.319Z,98939
2015-02-24T02:38:09.992Z,98933
2015-02-24T02:38:28.682Z,98942
2015-02-24T02:38:47.362Z,98936
2015-02-24T02:39:06.027Z,98933
2015-02-24T02:39:24.716Z,98930
2015-02-24T02:39:43.374Z,98927
2015-02-24T02:40:02.064Z,98927
2015-02-24T02:40:20.725Z,98924
2015-02-24T02:40:39.410Z,98936
2015-02-24T02:40:58.074Z,98936
2015-02-24T02:41:16.755Z,98942
2015-02-24T02:41:35.434Z,98933
2015-02-24T02:41:54.110Z,98939
2015-02-24T02:42:12.798Z,98947
2015-02-24T02:42:31.478Z,98936
2015-02-24T02:42:50.137Z,98950
2015-02-24T02:43:08.809Z,98942
2015-02-24T02:43:27.496Z,98939
2015-02-24T02:43:46.165Z,98942
2015-02-24T02:44:04.723Z,98939
2015-02-24T02:44:23.359Z,98942
2015-02-24T02:44:42.047Z,98945
2015-02-24T02:45:00.711Z,98947
2015-02-24T02:45:19.386Z,98950
2015-02-24T02:45:38.063Z,98945
2015-02-24T02:45:56.744Z,98950
2015-02-24T02:46:15.416Z,98942
2015-02-24T02:46:34.099Z,98950
2015-02-24T02:46:52.789Z,98953
2015-02-24T02:47:11.453Z,98953
2015-02-24T02:47:30.123Z,98947
2015-02-24T02:47:48.815Z,98956
2015-02-24T02:48:07.478Z,98965
2015-02-24T02:48:26.159Z,98959
2015-02-24T02:48:44.829Z,98953
2015-02-24T02:49:03.503Z,98965
2015-02-24T02:49:22.176Z,98956
2015-02-24T02:49:40.862Z,98962
2015-02-24T02:49:59.533Z,98956
2015-02-24T02:50:18.198Z,98956
2015-02-24T02:50:36.885Z,98950
2015-02-24T02:50:55.549Z,98953
2015-02-24T02:51:14.235Z,98953
2015-02-24T02:51:32.910Z,98942
2015-02-24T02:51:51.574Z,98956
2015-02-24T02:52:10.246Z,98953
2015-02-24T02:52:28.922Z,98956
2015-02-24T02:52:47.620Z,98953
2015-02-24T02:53:06.284Z,98953
2015-02-24T02:53:24.958Z,98945
2015-02-24T02:53:43.634Z,98962
2015-02-24T02:54:02.306Z,98959
2015-02-24T02:54:20.998Z,98948
2015-02-24T02:54:39.662Z,98953
2015-02-24T02:54:58.339Z,98953
2015-02-24T02:55:17.027Z,98945
2015-02-24T02:55:35.685Z,98933
2015-02-24T02:55:54.376Z,98936
2015-02-24T02:56:13.047Z,98936
2015-02-24T02:56:31.583Z,98942
2015-02-24T02:56:50.239Z,98945
2015-02-24T02:57:08.925Z,98930
2015-02-24T02:57:27.600Z,98930
2015-02-24T02:57:46.261Z,98930
2015-02-24T02:58:04.938Z,98930
2015-02-24T02:58:23.630Z,98933
2015-02-24T02:58:42.295Z,98936
2015-02-24T02:59:00.983Z,98925
2015-02-24T02:59:19.644Z,98933
2015-02-24T02:59:38.317Z,98933
2015-02-24T02:59:56.991Z,98936
2015-02-24T03:00:15.674Z,98933
2015-02-24T03:00:34.356Z,98939
2015-02-24T03:00:53.030Z,98942
2015-02-24T03:01:11.702Z,98927
2015-02-24T03:01:30.374Z,98936
2015-02-24T03:01:49.049Z,98939
2015-02-24T03:02:07.728Z,98939
2015-02-24T03:02:26.400Z,98942
2015-02-24T03:02:45.095Z,98936
2015-02-24T03:03:03.753Z,98930
2015-02-24T03:03:22.425Z,98930
2015-02-24T03:03:41.114Z,98925
2015-02-24T03:03:59.777Z,98925
2015-02-24T03:04:18.478Z,98930
2015-02-24T03:04:37.125Z,98930
2015-02-24T03:04:55.801Z,98925
2015-02-24T03:05:14.492Z,98919
2015-02-24T03:05:33.169Z,98925
2015-02-24T03:05:51.836Z,98936
2015-02-24T03:06:10.512Z,98927
2015-02-24T03:06:29.186Z,98922
2015-02-24T03:06:47.861Z,98933
2015-02-24T03:07:06.533Z,98939
2015-02-24T03:07:25.208Z,98939
2015-02-24T03:07:43.881Z,98942
2015-02-24T03:08:02.572Z,98939
2015-02-24T03:08:21.239Z,98948
2015-02-24T03:08:39.912Z,98945
2015-02-24T03:08:58.588Z,98953
2015-02-24T03:09:17.271Z,98948
2015-02-24T03:09:35.944Z,98956
2015-02-24T03:09:54.621Z,98953
2015-02-24T03:10:13.284Z,98956
2015-02-24T03:10:31.972Z,98953
2015-02-24T03:10:50.636Z,98962
2015-02-24T03:11:09.310Z,98959
2015-02-24T03:11:27.997Z,98959
2015-02-24T03:11:46.672Z,98962
2015-02-24T03:12:05.335Z,98965
2015-02-24T03:12:24.027Z,98962
2015-02-24T03:12:42.693Z,98968
2015-02-24T03:13:01.369Z,98948
2015-02-24T03:13:20.040Z,98959
2015-02-24T03:13:38.734Z,98959
2015-02-24T03:13:57.405Z,98965
2015-02-24T03:14:16.081Z,98959
2015-02-24T03:14:34.752Z,98962
2015-02-24T03:14:53.422Z,98970
2015-02-24T03:15:12.100Z,98956
2015-02-24T03:15:30.785Z,98962
2015-02-24T03:15:49.447Z,98970
2015-02-24T03:16:08.136Z,98965
2015-02-24T03:16:26.795Z,98975
2015-02-24T03:16:45.469Z,98965
2015-02-24T03:17:04.161Z,98970
2015-02-24T03:17:22.827Z,98970
2015-02-24T03:17:41.503Z,98968
2015-02-24T03:18:00.181Z,98965
2015-02-24T03:18:18.858Z,98970
2015-02-24T03:18:37.531Z,98968
2015-02-24T03:18:56.215Z,98984
2015-02-24T03:19:14.902Z,98978
2015-02-24T03:19:33.565Z,98975
2015-02-24T03:19:52.245Z,98972
2015-02-24T03:20:10.918Z,98970
2015-02-24T03:20:29.590Z,98984
2015-02-24T03:20:48.280Z,98968
2015-02-24T03:21:06.941Z,98981
2015-02-24T03:21:25.626Z,98968
2015-02-24T03:21:44.290Z,98970
2015-02-24T03:22:02.972Z,98981
2015-02-24T03:22:21.658Z,98975
2015-02-24T03:22:40.328Z,98970
2015-02-24T03:22:58.994Z,98968
2015-02-24T03:23:17.681Z,98970
2015-02-24T03:23:36.355Z,98968
2015-02-24T03:23:55.024Z,98970
2015-02-24T03:24:13.715Z,98975
2015-02-24T03:24:32.227Z,98968
2015-02-24T03:24:50.912Z,98975
2015-02-24T03:25:09.584Z,98968
2015-02-24T03:25:28.259Z,98968
2015-02-24T03:25:46.948Z,98975
2015-02-24T03:26:05.612Z,98975
2015-02-24T03:26:24.293Z,98972
2015-02-24T03:26:42.970Z,98968
2015-02-24T03:27:01.648Z,98962
2015-02-24T03:27:20.319Z,98968
2015-02-24T03:27:39.005Z,98975
2015-02-24T03:27:57.671Z,98975
2015-02-24T03:28:16.355Z,98970
2015-02-24T03:28:35.017Z,98975
2015-02-24T03:28:53.700Z,98970
2015-02-24T03:29:12.378Z,98968
2015-02-24T03:29:31.065Z,98975
2015-02-24T03:29:49.726Z,98970
2015-02-24T03:30:08.402Z,98975
2015-02-24T03:30:27.081Z,98968
2015-02-24T03:30:45.773Z,98975
2015-02-24T03:31:04.432Z,98972
2015-02-24T03:31:23.107Z,98959
2015-02-24T03:31:41.809Z,98972
2015-02-24T03:32:00.461Z,98970
2015-02-24T03:32:19.136Z,98975
2015-02-24T03:32:37.808Z,98975
2015-02-24T03:32:56.642Z,98973
2015-02-24T03:33:15.308Z,98975
2015-02-24T03:33:34.004Z,98970
2015-02-24T03:33:52.667Z,98972
2015-02-24T03:34:11.352Z,98972
2015-02-24T03:34:30.009Z,98975
2015-02-24T03:34:48.687Z,98990
2015-02-24T03:35:07.365Z,98995
2015-02-24T03:35:26.043Z,98992
2015-02-24T03:35:44.716Z,98998
2015-02-24T03:36:03.394Z,98987
2015-02-24T03:36:22.078Z,98987
2015-02-24T03:36:40.742Z,98984
2015-02-24T03:36:59.416Z,98990
2015-02-24T03:37:18.112Z,98987
2015-02-24T03:37:36.773Z,98981
2015-02-24T03:37:55.447Z,98984
2015-02-24T03:38:14.135Z,98987
2015-02-24T03:38:32.793Z,98972
2015-02-24T03:38:51.469Z,98984
2015-02-24T03:39:10.159Z,98984
2015-02-24T03:39:28.837Z,98984
2015-02-24T03:39:47.516Z,98975
2015-02-24T03:40:06.184Z,98981
2015-02-24T03:40:24.868Z,98978
2015-02-24T03:40:43.531Z,98984
2015-02-24T03:41:02.218Z,98984
2015-02-24T03:41:20.880Z,98986
2015-02-24T03:41:39.566Z,98978
2015-02-24T03:41:58.235Z,98981
2015-02-24T03:42:16.940Z,98992
2015-02-24T03:42:35.600Z,98981
2015-02-24T03:42:54.259Z,98986
2015-02-24T03:43:12.931Z,98981
2015-02-24T03:43:31.604Z,98981
2015-02-24T03:43:50.294Z,98989
2015-02-24T03:44:08.959Z,98981
2015-02-24T03:44:27.635Z,98992
2015-02-24T03:44:46.305Z,98995
2015-02-24T03:45:04.982Z,98992
2015-02-24T03:45:23.653Z,98986
2015-02-24T03:45:42.342Z,98983
2015-02-24T03:46:01.023Z,98978
2015-02-24T03:46:19.836Z,98986
2015-02-24T03:46:38.495Z,98992
2015-02-24T03:46:57.183Z,98983
2015-02-24T03:47:15.856Z,98992
2015-02-24T03:47:34.515Z,98992
2015-02-24T03:47:53.191Z,98995
2015-02-24T03:48:11.865Z,98989
2015-02-24T03:48:30.556Z,98983
2015-02-24T03:48:49.235Z,98992
2015-02-24T03:49:07.897Z,98992
2015-02-24T03:49:26.568Z,98992
2015-02-24T03:49:45.254Z,98989
2015-02-24T03:50:03.929Z,98992
2015-02-24T03:50:22.592Z,98983
2015-02-24T03:50:41.271Z,98975
2015-02-24T03:50:59.949Z,98975
2015-02-24T03:51:18.622Z,98977
2015-02-24T03:51:37.298Z,98995
2015-02-24T03:51:55.978Z,98989
2015-02-24T03:52:14.654Z,98980
2015-02-24T03:52:33.327Z,98986
2015-02-24T03:52:52.013Z,98986
2015-02-24T03:53:10.705Z,98995
2015-02-24T03:53:29.380Z,98989
2015-02-24T03:53:48.046Z,98989
2015-02-24T03:54:06.717Z,98997
2015-02-24T03:54:25.403Z,98989
2015-02-24T03:54:44.079Z,98986
2015-02-24T03:55:02.741Z,98995
2015-02-24T03:55:21.432Z,98989
2015-02-24T03:55:40.100Z,98980
2015-02-24T03:55:58.787Z,98989
2015-02-24T03:56:17.448Z,98997
2015-02-24T03:56:36.124Z,98980
2015-02-24T03:56:54.800Z,98989
2015-02-24T03:57:13.472Z,98989
2015-02-24T03:57:32.148Z,98989
2015-02-24T03:57:50.827Z,98983
2015-02-24T03:58:09.518Z,98989
2015-02-24T03:58:28.174Z,98989
2015-02-24T03:58:46.862Z,98992
2015-02-24T03:59:05.537Z,98986
2015-02-24T03:59:24.208Z,98997
2015-02-24T03:59:42.883Z,98992
2015-02-24T04:00:01.550Z,98989
2015-02-24T04:00:20.244Z,98992